Time;durP1;ratioP1;P1;durP2;ratioP2;P2;SDS_P1;SDS_P2;PMS_P1;PMS_P2;Temp;Humidity;BMP_temperature;BMP_pressure;BME280_temperature;BME280_humidity;BME280_pressure;Samples;Min_cycle;Max_cycle;Signal;HPM_P1;HPM_P2
2023/03/16 00:00:14;;;;;;;4.72;1.65;;;;;;;;;;5075106;28;20048;-67
2023/03/16 00:02:43;;;;;;;10.32;2.90;;;;;;;;;;5072647;28;20049;-67
2023/03/16 00:05:11;;;;;;;5.75;1.80;;;;;;;;;;5081963;28;20052;-67
2023/03/16 00:07:38;;;;;;;6.00;1.70;;;;;;;;;;5076661;28;20052;-67
2023/03/16 00:10:07;;;;;;;7.72;1.73;;;;;;;;;;5061124;28;20047;-67
2023/03/16 00:12:34;;;;;;;9.13;1.92;;;;;;;;;;5083817;28;20054;-67
2023/03/16 00:15:03;;;;;;;8.73;1.80;;;;;;;;;;5071067;28;20040;-67
2023/03/16 00:17:30;;;;;;;5.20;1.58;;;;;;;;;;5082571;28;20040;-67
2023/03/16 00:20:02;;;;;;;6.78;2.05;;;;;;;;;;5065714;28;20418;-67
2023/03/16 00:22:30;;;;;;;8.05;1.88;;;;;;;;;;5078931;28;20052;-67
2023/03/16 00:24:58;;;;;;;6.80;2.45;;;;;;;;;;5068629;28;20048;-67
2023/03/16 00:27:26;;;;;;;6.60;2.58;;;;;;;;;;5076504;28;21706;-67
2023/03/16 00:29:55;;;;;;;4.82;1.90;;;;;;;;;;5077640;28;20484;-67
2023/03/16 00:32:24;;;;;;;6.55;1.88;;;;;;;;;;5079051;28;20437;-67
2023/03/16 00:34:51;;;;;;;7.55;1.73;;;;;;;;;;5081545;28;20399;-67
2023/03/16 00:37:22;;;;;;;9.93;1.80;;;;;;;;;;5085421;28;20048;-67
2023/03/16 00:39:50;;;;;;;7.80;2.10;;;;;;;;;;5080210;28;20090;-67
2023/03/16 00:42:18;;;;;;;9.70;1.95;;;;;;;;;;5085516;28;20117;-67
2023/03/16 00:44:45;;;;;;;4.30;1.60;;;;;;;;;;5060588;28;20048;-67
2023/03/16 00:47:14;;;;;;;4.82;1.92;;;;;;;;;;5083829;28;20672;-67
2023/03/16 00:49:42;;;;;;;4.63;1.77;;;;;;;;;;5087127;28;20074;-67
2023/03/16 00:52:13;;;;;;;5.90;1.80;;;;;;;;;;5085683;28;20055;-67
2023/03/16 00:54:42;;;;;;;7.18;1.90;;;;;;;;;;5084905;28;20063;-67
2023/03/16 00:57:11;;;;;;;4.20;1.95;;;;;;;;;;5076180;28;20164;-67
2023/03/16 00:59:38;;;;;;;8.95;2.17;;;;;;;;;;5081809;28;20106;-67
2023/03/16 01:02:05;;;;;;;8.57;2.40;;;;;;;;;;5085253;28;20051;-67
2023/03/16 01:04:34;;;;;;;8.30;2.33;;;;;;;;;;5086287;28;20051;-67
2023/03/16 01:07:02;;;;;;;6.82;2.08;;;;;;;;;;5084565;28;20045;-67
2023/03/16 01:09:29;;;;;;;5.30;1.88;;;;;;;;;;5058005;28;20613;-67
2023/03/16 01:11:58;;;;;;;12.00;2.60;;;;;;;;;;5079179;28;20090;-67
2023/03/16 01:14:25;;;;;;;7.85;2.08;;;;;;;;;;5082720;28;20155;-67
2023/03/16 01:16:56;;;;;;;9.13;2.17;;;;;;;;;;5087169;28;20044;-67
2023/03/16 01:19:23;;;;;;;8.65;2.45;;;;;;;;;;5068048;28;20091;-67
2023/03/16 01:21:51;;;;;;;4.43;2.30;;;;;;;;;;5086915;28;20485;-67
2023/03/16 01:24:18;;;;;;;5.78;2.25;;;;;;;;;;5087177;28;20531;-67
2023/03/16 01:26:45;;;;;;;3.72;2.00;;;;;;;;;;5089517;28;20448;-67
2023/03/16 01:29:14;;;;;;;4.97;2.10;;;;;;;;;;5090204;28;20048;-67
2023/03/16 01:31:41;;;;;;;7.82;2.20;;;;;;;;;;5069501;28;20040;-67
2023/03/16 01:34:15;;;;;;;9.18;2.28;;;;;;;;;;5084601;28;20052;-67
2023/03/16 01:36:43;;;;;;;7.97;2.70;;;;;;;;;;5067556;28;20075;-67
2023/03/16 01:39:10;;;;;;;7.68;2.28;;;;;;;;;;5088252;28;20048;-67
2023/03/16 01:41:37;;;;;;;8.95;2.58;;;;;;;;;;5085473;28;20506;-67
2023/03/16 01:44:05;;;;;;;5.07;2.38;;;;;;;;;;5084264;28;20051;-67
2023/03/16 01:46:34;;;;;;;7.85;2.78;;;;;;;;;;5081123;28;20044;-67
2023/03/16 01:49:08;;;;;;;5.55;2.30;;;;;;;;;;5083249;28;20396;-67
2023/03/16 01:51:37;;;;;;;9.98;2.47;;;;;;;;;;5086851;28;20136;-68
2023/03/16 01:54:07;;;;;;;8.13;2.47;;;;;;;;;;5084171;28;20411;-67
2023/03/16 01:56:36;;;;;;;6.25;2.40;;;;;;;;;;5079767;28;20043;-67
2023/03/16 01:59:06;;;;;;;9.70;2.20;;;;;;;;;;5084249;28;20387;-67
2023/03/16 02:01:35;;;;;;;6.45;2.28;;;;;;;;;;5088249;28;20055;-67
2023/03/16 02:04:06;;;;;;;7.85;2.70;;;;;;;;;;5090306;28;20438;-67
2023/03/16 02:06:33;;;;;;;9.60;2.55;;;;;;;;;;5088009;28;20059;-67
2023/03/16 02:09:00;;;;;;;5.80;2.30;;;;;;;;;;5086867;28;20040;-68
2023/03/16 02:11:28;;;;;;;6.45;2.47;;;;;;;;;;5086936;28;20047;-67
2023/03/16 02:13:59;;;;;;;6.25;2.50;;;;;;;;;;5078688;28;20052;-67
2023/03/16 02:16:26;;;;;;;8.95;3.10;;;;;;;;;;5085602;28;20487;-67
2023/03/16 02:18:55;;;;;;;5.30;2.88;;;;;;;;;;5089347;28;20044;-67
2023/03/16 02:21:28;;;;;;;6.53;3.08;;;;;;;;;;5085497;28;20419;-67
2023/03/16 02:23:56;;;;;;;7.38;2.92;;;;;;;;;;5079259;28;20074;-67
2023/03/16 02:26:27;;;;;;;7.32;2.55;;;;;;;;;;5081665;28;20403;-67
2023/03/16 02:28:58;;;;;;;8.30;2.65;;;;;;;;;;5087776;28;20570;-67
2023/03/16 02:31:27;;;;;;;8.43;2.83;;;;;;;;;;5080717;28;20036;-67
2023/03/16 02:33:54;;;;;;;7.13;2.67;;;;;;;;;;5079136;28;20063;-67
2023/03/16 02:36:22;;;;;;;7.18;2.38;;;;;;;;;;5087561;28;20738;-67
2023/03/16 02:38:49;;;;;;;5.97;2.53;;;;;;;;;;5083841;28;20491;-67
2023/03/16 02:41:18;;;;;;;6.18;2.35;;;;;;;;;;5077727;28;20132;-67
2023/03/16 02:43:48;;;;;;;11.35;2.40;;;;;;;;;;5083618;28;20048;-67
2023/03/16 02:46:15;;;;;;;6.72;2.42;;;;;;;;;;5082948;28;20501;-67
2023/03/16 02:48:48;;;;;;;5.82;2.50;;;;;;;;;;5082169;28;20056;-67
2023/03/16 02:51:15;;;;;;;6.20;2.63;;;;;;;;;;5086112;28;20118;-67
2023/03/16 02:53:43;;;;;;;5.10;2.40;;;;;;;;;;5083471;28;20301;-67
2023/03/16 02:56:10;;;;;;;6.80;2.70;;;;;;;;;;5088125;28;20044;-67
2023/03/16 02:58:37;;;;;;;7.80;2.65;;;;;;;;;;5063753;28;20051;-67
2023/03/16 03:01:05;;;;;;;5.32;2.40;;;;;;;;;;5076638;28;20495;-67
2023/03/16 03:03:33;;;;;;;7.68;2.60;;;;;;;;;;5080359;28;20044;-67
2023/03/16 03:06:02;;;;;;;5.65;2.78;;;;;;;;;;5085687;28;20517;-67
2023/03/16 03:08:31;;;;;;;5.88;2.88;;;;;;;;;;5085770;28;20603;-67
2023/03/16 03:10:59;;;;;;;7.15;2.70;;;;;;;;;;5087748;28;20094;-67
2023/03/16 03:13:26;;;;;;;7.38;2.90;;;;;;;;;;5082397;28;20056;-67
2023/03/16 03:15:53;;;;;;;5.85;2.70;;;;;;;;;;5083540;28;20078;-67
2023/03/16 03:18:20;;;;;;;5.60;2.88;;;;;;;;;;5075146;28;20060;-68
2023/03/16 03:20:47;;;;;;;5.80;2.70;;;;;;;;;;5079297;28;20055;-67
2023/03/16 03:23:16;;;;;;;5.75;2.80;;;;;;;;;;5080136;28;20506;-67
2023/03/16 03:25:44;;;;;;;5.55;2.90;;;;;;;;;;5076795;28;20131;-67
2023/03/16 03:28:11;;;;;;;5.20;2.75;;;;;;;;;;5087637;28;20474;-67
2023/03/16 03:30:38;;;;;;;5.53;2.85;;;;;;;;;;5082310;28;20483;-67
2023/03/16 03:33:05;;;;;;;5.15;2.80;;;;;;;;;;5082664;28;20052;-67
2023/03/16 03:35:33;;;;;;;8.93;3.10;;;;;;;;;;5062192;28;20048;-67
2023/03/16 03:38:00;;;;;;;6.93;2.90;;;;;;;;;;5081331;28;20086;-67
2023/03/16 03:40:29;;;;;;;6.43;2.92;;;;;;;;;;5086392;28;20043;-67
2023/03/16 03:42:56;;;;;;;10.27;2.90;;;;;;;;;;5084183;28;20067;-67
2023/03/16 03:45:23;;;;;;;9.20;3.53;;;;;;;;;;5080378;28;20055;-67
2023/03/16 03:47:51;;;;;;;5.72;3.00;;;;;;;;;;5077335;28;20043;-67
2023/03/16 03:50:18;;;;;;;8.20;2.95;;;;;;;;;;5045069;28;20044;-67
2023/03/16 03:52:45;;;;;;;6.22;2.85;;;;;;;;;;5047476;28;20051;-67
2023/03/16 03:55:13;;;;;;;6.85;2.47;;;;;;;;;;5045356;28;20049;-67
2023/03/16 03:57:41;;;;;;;9.07;3.00;;;;;;;;;;5045037;28;20614;-67
2023/03/16 04:00:10;;;;;;;5.22;2.90;;;;;;;;;;5045301;28;20544;-67
2023/03/16 04:02:37;;;;;;;8.82;3.20;;;;;;;;;;5046569;28;20496;-67
2023/03/16 04:05:05;;;;;;;9.13;3.25;;;;;;;;;;5047525;28;20049;-67
2023/03/16 04:07:32;;;;;;;5.20;2.97;;;;;;;;;;5048322;28;20476;-67
2023/03/16 04:10:00;;;;;;;7.05;3.15;;;;;;;;;;5045905;28;20493;-67
2023/03/16 04:12:27;;;;;;;12.43;3.20;;;;;;;;;;5047028;28;20056;-67
2023/03/16 04:14:55;;;;;;;6.15;2.83;;;;;;;;;;5046474;28;20063;-67
2023/03/16 04:17:23;;;;;;;7.32;3.33;;;;;;;;;;5048172;28;20492;-67
2023/03/16 04:19:50;;;;;;;6.20;3.10;;;;;;;;;;5047071;28;20811;-67
2023/03/16 04:22:18;;;;;;;6.30;3.00;;;;;;;;;;5044137;28;20045;-67
2023/03/16 04:24:45;;;;;;;13.90;3.40;;;;;;;;;;5046636;28;20044;-67
2023/03/16 04:27:12;;;;;;;9.63;3.03;;;;;;;;;;5047815;28;20492;-67
2023/03/16 04:29:40;;;;;;;6.97;3.50;;;;;;;;;;5044650;28;20509;-67
2023/03/16 04:32:10;;;;;;;7.50;3.53;;;;;;;;;;5047230;28;20068;-67
2023/03/16 04:34:40;;;;;;;7.88;3.25;;;;;;;;;;5046981;28;20480;-67
2023/03/16 04:37:07;;;;;;;8.15;3.28;;;;;;;;;;5046292;28;20140;-67
2023/03/16 04:39:35;;;;;;;7.50;3.15;;;;;;;;;;5046256;28;20052;-67
2023/03/16 04:42:02;;;;;;;7.18;3.10;;;;;;;;;;5047489;28;20483;-67
2023/03/16 04:44:29;;;;;;;7.45;3.30;;;;;;;;;;5046023;28;20041;-67
2023/03/16 04:46:57;;;;;;;7.05;3.38;;;;;;;;;;5047432;28;20045;-67
2023/03/16 04:49:26;;;;;;;8.25;3.40;;;;;;;;;;5072129;28;20052;-67
2023/03/16 04:51:53;;;;;;;8.02;3.60;;;;;;;;;;5067885;28;20056;-67
2023/03/16 04:54:21;;;;;;;7.88;3.50;;;;;;;;;;5085563;28;20557;-67
2023/03/16 04:56:48;;;;;;;5.80;3.00;;;;;;;;;;5085288;28;20047;-67
2023/03/16 04:59:15;;;;;;;9.27;3.67;;;;;;;;;;5088014;28;20040;-67
2023/03/16 05:01:43;;;;;;;8.70;3.17;;;;;;;;;;5090832;28;20518;-67
2023/03/16 05:04:11;;;;;;;6.57;3.63;;;;;;;;;;5085400;28;20083;-67
2023/03/16 05:06:40;;;;;;;7.10;2.97;;;;;;;;;;5090741;28;20051;-67
2023/03/16 05:09:07;;;;;;;6.93;3.50;;;;;;;;;;5066761;28;20048;-67
2023/03/16 05:11:35;;;;;;;4.53;3.08;;;;;;;;;;5083095;28;20491;-67
2023/03/16 05:14:02;;;;;;;6.95;3.53;;;;;;;;;;5087619;28;20056;-67
2023/03/16 05:16:30;;;;;;;7.47;3.25;;;;;;;;;;5082808;28;20491;-67
2023/03/16 05:18:58;;;;;;;6.32;3.72;;;;;;;;;;5082618;28;20059;-67
2023/03/16 05:21:26;;;;;;;6.68;3.67;;;;;;;;;;5088776;28;20063;-67
2023/03/16 05:23:54;;;;;;;6.78;3.50;;;;;;;;;;5082602;28;20044;-67
2023/03/16 05:26:24;;;;;;;7.03;3.55;;;;;;;;;;5085246;28;20060;-67
2023/03/16 05:28:51;;;;;;;7.70;3.55;;;;;;;;;;5085461;28;20036;-67
2023/03/16 05:31:19;;;;;;;7.15;3.58;;;;;;;;;;5085622;28;20051;-67
2023/03/16 05:33:47;;;;;;;10.68;3.42;;;;;;;;;;5082108;28;20066;-67
2023/03/16 05:36:14;;;;;;;9.32;4.57;;;;;;;;;;5087089;28;20044;-67
2023/03/16 05:38:42;;;;;;;6.10;3.88;;;;;;;;;;5085583;28;20511;-67
2023/03/16 05:41:11;;;;;;;8.23;3.63;;;;;;;;;;5089049;28;20403;-67
2023/03/16 05:43:38;;;;;;;5.32;3.63;;;;;;;;;;5086457;28;20406;-67
2023/03/16 05:46:06;;;;;;;6.07;3.50;;;;;;;;;;5084627;28;20052;-67
2023/03/16 05:48:34;;;;;;;9.13;4.25;;;;;;;;;;5085051;28;20156;-67
2023/03/16 05:51:04;;;;;;;8.35;3.85;;;;;;;;;;5086917;28;20054;-67
2023/03/16 05:53:32;;;;;;;10.63;3.83;;;;;;;;;;5085727;28;20052;-67
2023/03/16 05:56:00;;;;;;;7.05;3.83;;;;;;;;;;5086802;28;20067;-67
2023/03/16 05:58:28;;;;;;;8.27;3.90;;;;;;;;;;5087503;28;20127;-67
2023/03/16 06:00:55;;;;;;;9.95;4.13;;;;;;;;;;5087273;28;20047;-67
2023/03/16 06:03:23;;;;;;;5.95;3.78;;;;;;;;;;5087392;28;20044;-67
2023/03/16 06:05:50;;;;;;;6.10;3.78;;;;;;;;;;5084532;28;20040;-67
2023/03/16 06:08:17;;;;;;;8.73;3.90;;;;;;;;;;5088950;28;20040;-67
2023/03/16 06:10:46;;;;;;;6.03;3.42;;;;;;;;;;5085379;28;20055;-67
2023/03/16 06:13:14;;;;;;;8.40;4.03;;;;;;;;;;5082391;28;20044;-67
2023/03/16 06:15:43;;;;;;;9.02;4.47;;;;;;;;;;5088702;28;20051;-67
2023/03/16 06:18:10;;;;;;;8.65;4.97;;;;;;;;;;5086714;28;20131;-67
2023/03/16 06:20:37;;;;;;;6.43;3.95;;;;;;;;;;5090244;28;20051;-67
2023/03/16 06:23:04;;;;;;;7.07;3.97;;;;;;;;;;5084492;28;20058;-67
2023/03/16 06:25:31;;;;;;;7.43;3.47;;;;;;;;;;5080670;28;20051;-67
2023/03/16 06:27:59;;;;;;;8.75;3.70;;;;;;;;;;5081643;28;20550;-67
2023/03/16 06:30:26;;;;;;;5.82;4.00;;;;;;;;;;5084534;28;20039;-67
2023/03/16 06:32:55;;;;;;;9.27;4.40;;;;;;;;;;5081018;28;20048;-67
2023/03/16 06:35:22;;;;;;;6.10;4.28;;;;;;;;;;5086576;28;20039;-67
2023/03/16 06:37:50;;;;;;;8.95;4.32;;;;;;;;;;5084700;28;20052;-67
2023/03/16 06:40:18;;;;;;;7.78;4.50;;;;;;;;;;5078961;28;20048;-67
2023/03/16 06:42:45;;;;;;;7.25;4.00;;;;;;;;;;5085398;28;20525;-67
2023/03/16 06:45:12;;;;;;;8.10;4.47;;;;;;;;;;5065666;28;20070;-67
2023/03/16 06:47:39;;;;;;;8.57;4.10;;;;;;;;;;5086282;28;20502;-67
2023/03/16 06:50:09;;;;;;;8.70;4.55;;;;;;;;;;5083415;28;20061;-67
2023/03/16 06:52:36;;;;;;;10.10;4.75;;;;;;;;;;5080963;28;20127;-67
2023/03/16 06:55:04;;;;;;;9.77;4.63;;;;;;;;;;5080298;28;20052;-67
2023/03/16 06:57:31;;;;;;;11.45;4.13;;;;;;;;;;5085011;28;20110;-67
2023/03/16 06:59:58;;;;;;;12.02;5.13;;;;;;;;;;5081932;28;20048;-67
2023/03/16 07:02:26;;;;;;;11.48;4.50;;;;;;;;;;5084059;28;20044;-67
2023/03/16 07:04:53;;;;;;;11.23;4.57;;;;;;;;;;5085887;28;20048;-67
2023/03/16 07:07:23;;;;;;;9.40;4.70;;;;;;;;;;5088018;28;20044;-67
2023/03/16 07:09:50;;;;;;;11.90;5.22;;;;;;;;;;5081008;28;20058;-67
2023/03/16 07:12:17;;;;;;;9.18;5.07;;;;;;;;;;5080654;28;20040;-67
2023/03/16 07:14:45;;;;;;;12.88;5.22;;;;;;;;;;5085478;28;20074;-67
2023/03/16 07:17:12;;;;;;;13.07;4.72;;;;;;;;;;5085093;28;20051;-67
2023/03/16 07:19:39;;;;;;;9.75;4.88;;;;;;;;;;5084376;28;20043;-67
2023/03/16 07:22:07;;;;;;;9.50;5.05;;;;;;;;;;5088504;28;20450;-67
2023/03/16 07:24:35;;;;;;;9.98;4.70;;;;;;;;;;5088106;28;20044;-68
2023/03/16 07:27:02;;;;;;;9.10;5.03;;;;;;;;;;5086477;28;20412;-67
2023/03/16 07:29:30;;;;;;;9.82;4.88;;;;;;;;;;5081552;28;20051;-67
2023/03/16 07:31:57;;;;;;;7.03;4.68;;;;;;;;;;5081847;28;20044;-67
2023/03/16 07:34:24;;;;;;;9.27;4.63;;;;;;;;;;5086566;28;20410;-68
2023/03/16 07:36:52;;;;;;;10.02;4.85;;;;;;;;;;5088293;28;20051;-67
2023/03/16 07:39:20;;;;;;;10.27;4.90;;;;;;;;;;5082468;28;20113;-67
2023/03/16 07:41:48;;;;;;;8.45;4.43;;;;;;;;;;5083068;28;21440;-67
2023/03/16 07:44:16;;;;;;;11.20;4.45;;;;;;;;;;5085025;28;20052;-67
2023/03/16 07:46:46;;;;;;;9.23;4.75;;;;;;;;;;5085174;28;20122;-67
2023/03/16 07:49:15;;;;;;;12.73;5.10;;;;;;;;;;5086529;28;20048;-67
2023/03/16 07:51:42;;;;;;;11.00;4.50;;;;;;;;;;5084375;28;20058;-67
2023/03/16 07:54:10;;;;;;;9.02;4.60;;;;;;;;;;5083499;28;20075;-67
2023/03/16 07:56:37;;;;;;;7.60;4.57;;;;;;;;;;5084219;28;20051;-67
2023/03/16 07:59:06;;;;;;;11.07;4.20;;;;;;;;;;5085353;28;20040;-67
2023/03/16 08:01:33;;;;;;;9.32;4.50;;;;;;;;;;5084591;28;20384;-67
2023/03/16 08:04:01;;;;;;;12.82;4.72;;;;;;;;;;5086823;28;20086;-67
2023/03/16 08:06:28;;;;;;;11.80;4.95;;;;;;;;;;5085502;28;20140;-67
2023/03/16 08:08:56;;;;;;;7.93;4.45;;;;;;;;;;5083858;28;20056;-67
2023/03/16 08:11:23;;;;;;;16.42;4.90;;;;;;;;;;5066003;28;20130;-67
2023/03/16 08:13:52;;;;;;;11.52;5.18;;;;;;;;;;5081381;28;20514;-67
2023/03/16 08:16:21;;;;;;;9.60;5.07;;;;;;;;;;5084382;28;20044;-67
2023/03/16 08:18:50;;;;;;;9.60;4.20;;;;;;;;;;5082841;28;20071;-67
2023/03/16 08:21:18;;;;;;;13.95;4.90;;;;;;;;;;5083610;28;20066;-67
2023/03/16 08:23:48;;;;;;;8.18;4.45;;;;;;;;;;5084085;28;20052;-67
2023/03/16 08:26:16;;;;;;;10.60;4.78;;;;;;;;;;5086508;28;20071;-67
2023/03/16 08:28:45;;;;;;;8.02;4.43;;;;;;;;;;5085186;28;20544;-67
2023/03/16 08:31:13;;;;;;;7.72;4.10;;;;;;;;;;5082288;28;20052;-67
2023/03/16 08:33:42;;;;;;;9.02;4.40;;;;;;;;;;5085242;28;20047;-67
2023/03/16 08:36:12;;;;;;;8.82;4.40;;;;;;;;;;5090281;28;20483;-67
2023/03/16 08:38:39;;;;;;;11.15;5.13;;;;;;;;;;5090426;28;20036;-67
2023/03/16 08:41:07;;;;;;;13.93;4.63;;;;;;;;;;5087648;28;20052;-67
2023/03/16 08:43:36;;;;;;;8.88;4.80;;;;;;;;;;5086444;28;20534;-67
2023/03/16 08:46:04;;;;;;;11.57;4.40;;;;;;;;;;5089079;28;20056;-67
2023/03/16 08:48:32;;;;;;;9.52;4.68;;;;;;;;;;5089301;28;20048;-67
2023/03/16 08:51:04;;;;;;;10.27;4.47;;;;;;;;;;5090504;28;20051;-67
2023/03/16 08:53:32;;;;;;;10.90;4.60;;;;;;;;;;5087778;28;20059;-67
2023/03/16 08:56:03;;;;;;;8.73;4.93;;;;;;;;;;5082976;28;20069;-67
2023/03/16 08:58:32;;;;;;;10.90;4.72;;;;;;;;;;5084438;28;20074;-67
2023/03/16 09:01:00;;;;;;;12.27;4.90;;;;;;;;;;5086483;28;20898;-67
2023/03/16 09:03:27;;;;;;;7.93;4.20;;;;;;;;;;5089740;28;20051;-67
2023/03/16 09:05:56;;;;;;;10.82;4.88;;;;;;;;;;5085205;28;20415;-67
2023/03/16 09:08:25;;;;;;;13.52;5.55;;;;;;;;;;5091425;28;20052;-67
2023/03/16 09:10:59;;;;;;;8.73;4.50;;;;;;;;;;5086651;28;20063;-67
2023/03/16 09:13:26;;;;;;;8.57;5.15;;;;;;;;;;5089027;28;20043;-67
2023/03/16 09:15:54;;;;;;;8.52;4.82;;;;;;;;;;5090329;28;20046;-67
2023/03/16 09:18:22;;;;;;;11.05;4.80;;;;;;;;;;5090178;28;20086;-67
2023/03/16 09:20:49;;;;;;;13.38;5.50;;;;;;;;;;5090510;28;20522;-67
2023/03/16 09:23:17;;;;;;;12.35;4.82;;;;;;;;;;5079692;28;20066;-67
2023/03/16 09:25:45;;;;;;;10.55;4.40;;;;;;;;;;5085953;28;20052;-67
2023/03/16 09:28:13;;;;;;;11.27;4.40;;;;;;;;;;5090777;28;20070;-67
2023/03/16 09:30:41;;;;;;;10.52;4.63;;;;;;;;;;5087174;28;20701;-67
2023/03/16 09:33:08;;;;;;;7.13;4.00;;;;;;;;;;5088819;28;20553;-67
2023/03/16 09:35:35;;;;;;;7.97;4.18;;;;;;;;;;5089447;28;20059;-67
2023/03/16 09:38:03;;;;;;;8.20;3.90;;;;;;;;;;5090642;28;20491;-67
2023/03/16 09:40:32;;;;;;;10.65;4.40;;;;;;;;;;5087615;28;20085;-67
2023/03/16 09:43:09;;;;;;;17.02;4.60;;;;;;;;;;5082406;28;20066;-67
2023/03/16 09:45:39;;;;;;;7.57;4.30;;;;;;;;;;5085874;28;20045;-67
2023/03/16 09:48:08;;;;;;;7.90;4.07;;;;;;;;;;5086573;28;20480;-67
2023/03/16 09:50:38;;;;;;;7.57;4.25;;;;;;;;;;5085006;28;20058;-67
2023/03/16 09:53:08;;;;;;;8.90;4.10;;;;;;;;;;5083656;28;20528;-67
2023/03/16 09:55:37;;;;;;;8.45;4.20;;;;;;;;;;5088720;28;20090;-67
2023/03/16 09:58:08;;;;;;;11.30;4.60;;;;;;;;;;5084652;28;20147;-67
2023/03/16 10:00:38;;;;;;;12.00;4.93;;;;;;;;;;5087480;28;20062;-67
2023/03/16 10:03:12;;;;;;;9.43;4.10;;;;;;;;;;5086511;28;20520;-66
2023/03/16 10:05:39;;;;;;;;;;;;;;;;;;5088436;28;20044;-67
2023/03/16 10:08:09;;;;;;;8.15;4.22;;;;;;;;;;5087942;28;19978;-67
2023/03/16 10:10:41;;;;;;;9.65;4.80;;;;;;;;;;5086437;28;20043;-67
2023/03/16 10:13:16;;;;;;;10.95;4.80;;;;;;;;;;5087934;28;20055;-67
2023/03/16 10:15:44;;;;;;;14.30;4.25;;;;;;;;;;5086232;28;20090;-67
2023/03/16 10:18:15;;;;;;;9.38;4.45;;;;;;;;;;5086916;28;20483;-67
2023/03/16 10:20:44;;;;;;;9.75;4.00;;;;;;;;;;5084284;28;20140;-67
2023/03/16 10:23:17;;;;;;;7.78;4.15;;;;;;;;;;5090451;28;20239;-67
2023/03/16 10:25:46;;;;;;;7.95;4.40;;;;;;;;;;5087338;28;20052;-67
2023/03/16 10:28:16;;;;;;;10.00;4.43;;;;;;;;;;5089226;28;20569;-67
2023/03/16 10:30:44;;;;;;;6.57;3.72;;;;;;;;;;5086418;28;20395;-66
2023/03/16 10:33:18;;;;;;;8.68;3.90;;;;;;;;;;5064558;28;20153;-67
2023/03/16 10:35:47;;;;;;;9.07;3.90;;;;;;;;;;5082917;28;20048;-67
2023/03/16 10:38:27;;;;;;;9.27;4.07;;;;;;;;;;5086021;28;20476;-66
2023/03/16 10:40:56;;;;;;;10.43;4.18;;;;;;;;;;5066995;28;20047;-67
2023/03/16 10:43:25;;;;;;;10.70;4.85;;;;;;;;;;5085810;28;20056;-66
2023/03/16 10:45:53;;;;;;;8.40;3.70;;;;;;;;;;5084867;28;20051;-67
2023/03/16 10:48:22;;;;;;;9.15;4.18;;;;;;;;;;5069682;28;20143;-67
2023/03/16 10:50:51;;;;;;;12.32;4.05;;;;;;;;;;5086007;28;20083;-67
2023/03/16 10:53:20;;;;;;;7.50;3.78;;;;;;;;;;5082583;28;20052;-66
2023/03/16 10:55:49;;;;;;;6.93;3.92;;;;;;;;;;5068147;28;20040;-66
2023/03/16 10:58:25;;;;;;;11.48;4.07;;;;;;;;;;5082979;28;20047;-67
2023/03/16 11:00:53;;;;;;;8.77;3.75;;;;;;;;;;5088363;28;20084;-67
2023/03/16 11:03:23;;;;;;;7.68;3.88;;;;;;;;;;5081956;28;20052;-67
2023/03/16 11:05:57;;;;;;;9.85;3.30;;;;;;;;;;5082462;28;20048;-66
2023/03/16 11:08:26;;;;;;;6.85;3.45;;;;;;;;;;5080288;28;20136;-67
2023/03/16 11:10:57;;;;;;;9.05;3.90;;;;;;;;;;5083192;28;20499;-67
2023/03/16 11:13:33;;;;;;;7.43;3.88;;;;;;;;;;5067612;28;20076;-67
2023/03/16 11:16:03;;;;;;;8.00;3.42;;;;;;;;;;5085076;28;20122;-67
2023/03/16 11:18:32;;;;;;;7.65;3.70;;;;;;;;;;5085880;28;20055;-67
2023/03/16 11:21:03;;;;;;;8.77;3.65;;;;;;;;;;5067921;28;20625;-66
2023/03/16 11:23:32;;;;;;;8.73;3.78;;;;;;;;;;5080433;28;20419;-67
2023/03/16 11:26:01;;;;;;;7.53;3.00;;;;;;;;;;5079785;28;20047;-66
2023/03/16 11:28:34;;;;;;;6.97;3.50;;;;;;;;;;5076889;28;20052;-67
2023/03/16 11:31:07;;;;;;;8.68;3.63;;;;;;;;;;5082347;28;20036;-67
2023/03/16 11:33:34;;;;;;;6.75;3.47;;;;;;;;;;5082398;28;20083;-67
2023/03/16 11:36:11;;;;;;;9.40;4.10;;;;;;;;;;5088123;28;20040;-67
2023/03/16 11:38:43;;;;;;;7.40;3.50;;;;;;;;;;5087441;28;20538;-67
2023/03/16 11:41:23;;;;;;;12.32;3.50;;;;;;;;;;5080069;28;20048;-67
2023/03/16 11:43:53;;;;;;;8.35;3.95;;;;;;;;;;5083241;28;20048;-67
2023/03/16 11:46:22;;;;;;;9.77;3.80;;;;;;;;;;5088007;28;20052;-67
2023/03/16 11:48:54;;;;;;;8.35;3.63;;;;;;;;;;5086878;28;20044;-67
2023/03/16 11:51:33;;;;;;;9.05;3.28;;;;;;;;;;5086166;28;20502;-67
2023/03/16 11:54:05;;;;;;;8.73;3.65;;;;;;;;;;5085910;28;20052;-67
2023/03/16 11:56:34;;;;;;;8.07;3.10;;;;;;;;;;5084805;28;20043;-67
2023/03/16 11:59:11;;;;;;;9.07;3.40;;;;;;;;;;5087459;28;20055;-67
2023/03/16 12:01:46;;;;;;;11.68;3.25;;;;;;;;;;5084126;28;20062;-67
2023/03/16 12:04:26;;;;;;;5.95;3.05;;;;;;;;;;5082208;28;20507;-67
2023/03/16 12:07:02;;;;;;;6.93;3.40;;;;;;;;;;5081362;28;20483;-67
2023/03/16 12:09:45;;;;;;;10.43;3.25;;;;;;;;;;5079504;28;20055;-67
2023/03/16 12:12:21;;;;;;;5.97;3.53;;;;;;;;;;5085790;28;20044;-67
2023/03/16 12:14:52;;;;;;;7.28;3.30;;;;;;;;;;5079542;28;20040;-67
2023/03/16 12:17:21;;;;;;;6.68;3.38;;;;;;;;;;5085338;28;20048;-68
2023/03/16 12:19:50;;;;;;;8.38;2.83;;;;;;;;;;5085288;28;20055;-67
2023/03/16 12:22:20;;;;;;;5.22;3.13;;;;;;;;;;5085774;28;20130;-67
2023/03/16 12:24:47;;;;;;;8.93;3.40;;;;;;;;;;5084471;28;20054;-67
2023/03/16 12:27:16;;;;;;;8.52;2.70;;;;;;;;;;5079884;28;20449;-67
2023/03/16 12:29:50;;;;;;;5.60;2.53;;;;;;;;;;5079712;28;20043;-67
2023/03/16 12:32:23;;;;;;;9.35;3.38;;;;;;;;;;5081362;28;20503;-67
2023/03/16 12:34:55;;;;;;;7.68;3.17;;;;;;;;;;5085286;28;20420;-67
2023/03/16 12:37:33;;;;;;;7.75;3.28;;;;;;;;;;5086030;28;20122;-67
2023/03/16 12:40:07;;;;;;;8.13;4.18;;;;;;;;;;5087770;28;20177;-67
2023/03/16 12:42:55;;;;;;;6.03;2.83;;;;;;;;;;5082562;28;20495;-67
2023/03/16 12:45:26;;;;;;;6.18;3.00;;;;;;;;;;5084165;28;20052;-67
2023/03/16 12:47:57;;;;;;;5.95;3.00;;;;;;;;;;5071287;28;20052;-67
2023/03/16 12:50:25;;;;;;;9.23;3.25;;;;;;;;;;5082610;28;20093;-67
2023/03/16 12:52:53;;;;;;;6.50;3.17;;;;;;;;;;5087119;28;20055;-67
2023/03/16 12:55:26;;;;;;;5.90;2.75;;;;;;;;;;5085749;28;20425;-67
2023/03/16 12:58:00;;;;;;;6.65;2.97;;;;;;;;;;5078462;28;20105;-67
2023/03/16 13:00:36;;;;;;;6.85;2.78;;;;;;;;;;5077659;28;20547;-67
2023/03/16 13:03:06;;;;;;;7.10;2.93;;;;;;;;;;5086449;28;20052;-67
2023/03/16 13:05:34;;;;;;;5.80;2.97;;;;;;;;;;5080697;28;20101;-67
2023/03/16 13:08:06;;;;;;;5.88;3.20;;;;;;;;;;5083599;28;20040;-67
2023/03/16 13:10:34;;;;;;;5.80;2.85;;;;;;;;;;5075613;28;20056;-69
2023/03/16 13:13:10;;;;;;;7.40;3.30;;;;;;;;;;5084227;28;20479;-69
2023/03/16 13:15:38;;;;;;;6.28;3.25;;;;;;;;;;5082529;28;20055;-69
2023/03/16 13:18:34;;;;;;;5.72;3.13;;;;;;;;;;5085174;28;20051;-69
2023/03/16 13:21:13;;;;;;;8.27;3.28;;;;;;;;;;5079322;28;20071;-70
2023/03/16 13:23:48;;;;;;;8.20;3.35;;;;;;;;;;5079501;28;20048;-69
2023/03/16 13:26:16;;;;;;;8.55;3.30;;;;;;;;;;5083823;28;20055;-69
2023/03/16 13:28:46;;;;;;;7.43;3.60;;;;;;;;;;5080906;28;20052;-69
2023/03/16 13:31:28;;;;;;;6.85;3.13;;;;;;;;;;5080817;28;20585;-69
2023/03/16 13:33:58;;;;;;;5.80;3.42;;;;;;;;;;5080309;28;20044;-69
2023/03/16 13:36:27;;;;;;;9.00;3.33;;;;;;;;;;5088598;28;20647;-69
2023/03/16 13:38:58;;;;;;;7.90;3.50;;;;;;;;;;5084524;28;20052;-69
2023/03/16 13:41:25;;;;;;;7.47;3.20;;;;;;;;;;5083276;28;20045;-69
2023/03/16 13:43:52;;;;;;;7.95;3.10;;;;;;;;;;5082667;28;20056;-69
2023/03/16 13:46:21;;;;;;;6.95;3.08;;;;;;;;;;5090359;28;20048;-69
2023/03/16 13:48:50;;;;;;;8.25;3.17;;;;;;;;;;5082101;28;20131;-69
2023/03/16 13:51:19;;;;;;;6.43;3.30;;;;;;;;;;5077736;28;20128;-69
2023/03/16 13:53:48;;;;;;;8.35;3.55;;;;;;;;;;5067889;28;20097;-69
2023/03/16 13:56:16;;;;;;;7.40;3.42;;;;;;;;;;5085881;28;20482;-70
2023/03/16 13:58:45;;;;;;;7.55;3.33;;;;;;;;;;5087133;28;20044;-69
2023/03/16 14:01:20;;;;;;;11.05;3.80;;;;;;;;;;5085635;28;20050;-69
2023/03/16 14:03:48;;;;;;;9.10;3.58;;;;;;;;;;5084228;28;20123;-69
2023/03/16 14:06:22;;;;;;;8.45;3.63;;;;;;;;;;5081911;28;20052;-69
2023/03/16 14:08:51;;;;;;;11.27;4.03;;;;;;;;;;5066129;28;20067;-69
2023/03/16 14:11:19;;;;;;;6.93;3.08;;;;;;;;;;5087867;28;20132;-70
2023/03/16 14:13:52;;;;;;;4.57;3.15;;;;;;;;;;5083468;28;20395;-69
2023/03/16 14:16:20;;;;;;;8.43;3.38;;;;;;;;;;5087494;28;20048;-70
2023/03/16 14:18:48;;;;;;;6.95;3.42;;;;;;;;;;5079279;28;20427;-69
2023/03/16 14:21:17;;;;;;;11.15;3.92;;;;;;;;;;5088091;28;20044;-70
2023/03/16 14:23:47;;;;;;;6.22;3.58;;;;;;;;;;5079510;28;20185;-69
2023/03/16 14:26:14;;;;;;;8.98;3.17;;;;;;;;;;5088026;28;20078;-70
2023/03/16 14:28:42;;;;;;;7.43;3.33;;;;;;;;;;5086136;28;20047;-69
2023/03/16 14:31:11;;;;;;;10.88;3.10;;;;;;;;;;5078555;28;20056;-69
2023/03/16 14:33:40;;;;;;;8.70;4.13;;;;;;;;;;5078607;28;20143;-69
2023/03/16 14:36:11;;;;;;;6.28;3.50;;;;;;;;;;5081600;28;20051;-69
2023/03/16 14:38:39;;;;;;;6.28;3.58;;;;;;;;;;5082354;28;20040;-69
2023/03/16 14:41:19;;;;;;;9.52;3.55;;;;;;;;;;5085246;28;20050;-70
2023/03/16 14:43:47;;;;;;;10.02;3.50;;;;;;;;;;5062858;28;20072;-69
2023/03/16 14:46:17;;;;;;;8.35;3.55;;;;;;;;;;5084886;28;20054;-70
2023/03/16 14:48:45;;;;;;;5.15;3.50;;;;;;;;;;5086339;28;20519;-69
2023/03/16 14:51:13;;;;;;;9.43;3.60;;;;;;;;;;5081511;28;20400;-70